Time;durP1;ratioP1;P1;durP2;ratioP2;P2;SDS_P1;SDS_P2;PMS_P1;PMS_P2;Temp;Humidity;BMP_temperature;BMP_pressure;BME280_temperature;BME280_humidity;BME280_pressure;Samples;Min_cycle;Max_cycle;Signal;HPM_P1;HPM_P2
2021/11/06 00:01:06;;;;;;;32.30;15.73;;;;;;;6.30;92.57;99359.16;4741650;30;20647;-92
2021/11/06 00:03:34;;;;;;;23.70;14.47;;;;;;;6.26;93.33;99363.59;4750237;30;20661;-92
2021/11/06 00:06:02;;;;;;;26.87;15.43;;;;;;;6.21;92.96;99360.31;4751664;30;21013;-92
2021/11/06 00:08:30;;;;;;;28.73;16.50;;;;;;;6.19;92.75;99356.94;4749278;30;20655;-92
2021/11/06 00:11:00;;;;;;;30.27;14.80;;;;;;;6.19;92.75;99359.53;4749635;30;20650;-92
2021/11/06 00:13:28;;;;;;;24.47;14.17;;;;;;;6.11;92.17;99353.72;4762469;30;20669;-92
2021/11/06 00:15:57;;;;;;;28.13;13.90;;;;;;;6.06;92.09;99359.09;4751491;30;20687;-92
2021/11/06 00:18:25;;;;;;;25.50;14.90;;;;;;;6.01;92.24;99359.22;4732597;30;20700;-92
2021/11/06 00:20:53;;;;;;;29.20;13.70;;;;;;;5.98;92.47;99361.91;4747243;30;21414;-92
2021/11/06 00:23:21;;;;;;;39.87;17.20;;;;;;;5.95;92.60;99366.34;4731118;30;20649;-91
2021/11/06 00:25:49;;;;;;;33.00;14.47;;;;;;;5.92;92.91;99367.25;4747442;30;20653;-92
2021/11/06 00:28:19;;;;;;;32.70;14.33;;;;;;;5.89;93.58;99356.16;4732044;30;20640;-92
2021/11/06 00:30:47;;;;;;;28.57;14.50;;;;;;;5.85;93.57;99357.13;4749961;30;20657;-90
2021/11/06 00:33:15;;;;;;;29.37;13.03;;;;;;;5.83;93.31;99354.63;4731794;30;20666;-90
2021/11/06 00:35:43;;;;;;;32.70;13.30;;;;;;;5.82;93.21;99359.84;4747632;30;20647;-90
2021/11/06 00:38:12;;;;;;;29.27;13.17;;;;;;;5.81;93.81;99360.72;4735041;30;20730;-90
2021/11/06 00:40:40;;;;;;;26.20;12.60;;;;;;;5.80;93.95;99365.06;4732554;30;20650;-90
2021/11/06 00:43:08;;;;;;;35.57;14.07;;;;;;;5.82;93.98;99357.25;4730656;30;20651;-90
2021/11/06 00:45:38;;;;;;;25.57;11.27;;;;;;;5.82;94.36;99347.75;4750136;30;20735;-90
2021/11/06 00:48:06;;;;;;;38.40;12.83;;;;;;;5.82;94.37;99347.75;4733592;30;20655;-90
2021/11/06 00:50:35;;;;;;;31.83;12.37;;;;;;;5.82;94.70;99352.91;4750317;30;21093;-90
2021/11/06 00:53:03;;;;;;;38.23;11.40;;;;;;;5.84;94.70;99356.28;4748548;30;21188;-90
2021/11/06 00:55:31;;;;;;;45.23;10.70;;;;;;;5.87;93.97;99358.78;4744755;30;20762;-90
2021/11/06 00:57:59;;;;;;;34.13;12.33;;;;;;;5.86;95.22;99356.25;4748233;30;20645;-90
2021/11/06 01:00:27;;;;;;;29.37;11.50;;;;;;;5.87;95.02;99363.13;4731044;30;21304;-90
2021/11/06 01:02:57;;;;;;;31.10;14.40;;;;;;;5.90;94.88;99365.63;4761333;30;20743;-91
2021/11/06 01:05:25;;;;;;;22.40;12.03;;;;;;;5.91;94.66;99368.16;4750322;30;21224;-90
2021/11/06 01:07:56;;;;;;;30.23;11.50;;;;;;;5.91;94.87;99370.75;4734306;30;20642;-90
2021/11/06 01:10:24;;;;;;;31.83;12.33;;;;;;;5.90;95.31;99370.81;4742813;30;20674;-90
2021/11/06 01:12:52;;;;;;;33.33;11.50;;;;;;;5.91;95.40;99368.16;4748255;30;20627;-90
2021/11/06 01:15:21;;;;;;;50.87;11.90;;;;;;;5.92;95.39;99369.00;4732352;30;20674;-90
2021/11/06 01:17:49;;;;;;;32.23;11.43;;;;;;;5.95;95.35;99366.34;4748435;30;20666;-89
2021/11/06 01:20:19;;;;;;;17.10;10.47;;;;;;;5.98;95.47;99371.41;4749157;30;20648;-90
2021/11/06 01:22:47;;;;;;;33.83;10.63;;;;;;;5.99;95.12;99373.97;4733986;30;20703;-90
2021/11/06 01:25:16;;;;;;;23.47;10.37;;;;;;;5.95;94.63;99380.09;4730415;30;20738;-90
2021/11/06 01:27:45;;;;;;;34.10;10.90;;;;;;;5.93;94.95;99371.56;4742366;30;20762;-90
2021/11/06 01:30:13;;;;;;;33.80;10.10;;;;;;;5.90;94.70;99376.81;4749711;30;21324;-90
2021/11/06 01:32:44;;;;;;;26.70;10.60;;;;;;;5.87;95.01;99378.66;4746326;30;20639;-90
2021/11/06 01:35:13;;;;;;;17.30;9.80;;;;;;;5.86;94.54;99370.03;4746692;30;21270;-90
2021/11/06 01:37:42;;;;;;;32.60;11.00;;;;;;;5.81;94.21;99369.31;4746076;30;20651;-90
2021/11/06 01:40:13;;;;;;;27.13;9.63;;;;;;;5.82;94.28;99367.59;4749792;30;20727;-90
2021/11/06 01:42:42;;;;;;;29.60;10.43;;;;;;;5.84;94.54;99373.56;4734287;30;20644;-90
2021/11/06 01:45:12;;;;;;;37.07;11.00;;;;;;;5.83;94.87;99374.44;4730952;30;20658;-90
2021/11/06 01:47:41;;;;;;;59.37;12.03;;;;;;;5.83;95.29;99367.56;4748554;30;21296;-90
2021/11/06 01:50:09;;;;;;;35.83;9.70;;;;;;;5.86;95.02;99371.78;4745061;30;20745;-90
2021/11/06 01:52:38;;;;;;;38.77;10.30;;;;;;;5.86;94.90;99366.59;4750444;30;20644;-90
2021/11/06 01:55:08;;;;;;;22.93;8.90;;;;;;;5.86;94.71;99367.44;4749378;30;20694;-90
2021/11/06 01:57:37;;;;;;;22.03;9.20;;;;;;;5.84;94.30;99360.63;4762264;30;21023;-90
2021/11/06 02:00:07;;;;;;;22.73;8.70;;;;;;;5.86;94.56;99361.44;4734037;30;20726;-90
2021/11/06 02:02:35;;;;;;;15.97;8.43;;;;;;;5.84;94.09;99358.88;4733175;30;20654;-90
2021/11/06 02:05:04;;;;;;;52.10;11.70;;;;;;;5.83;93.85;99356.34;4748313;30;20658;-90
2021/11/06 02:07:32;;;;;;;23.30;10.20;;;;;;;5.80;94.15;99356.44;4746397;30;20730;-90
2021/11/06 02:10:01;;;;;;;34.97;11.27;;;;;;;5.79;94.68;99354.75;4762069;30;20668;-90
2021/11/06 02:12:30;;;;;;;22.47;10.17;;;;;;;5.82;94.52;99349.50;4733253;30;20650;-90
2021/11/06 02:14:59;;;;;;;37.20;11.80;;;;;;;5.83;94.64;99353.75;4747954;30;21310;-90
2021/11/06 02:17:27;;;;;;;31.17;11.10;;;;;;;5.82;94.81;99357.25;4735407;30;20655;-90
2021/11/06 02:19:56;;;;;;;39.43;11.23;;;;;;;5.82;94.44;99354.66;4723944;30;20647;-90
2021/11/06 02:22:25;;;;;;;24.03;10.23;;;;;;;5.79;94.68;99355.59;4744128;30;20739;-90
2021/11/06 02:24:53;;;;;;;30.87;11.03;;;;;;;5.80;94.71;99340.91;4734050;30;20640;-90
2021/11/06 02:27:22;;;;;;;21.83;10.57;;;;;;;5.80;95.35;99351.25;4732188;30;21389;-90
2021/11/06 02:29:50;;;;;;;18.77;9.40;;;;;;;5.78;95.08;99353.88;4762438;30;20654;-90
2021/11/06 02:32:19;;;;;;;31.33;11.50;;;;;;;5.74;95.25;99352.28;4732606;30;20651;-90
2021/11/06 02:34:47;;;;;;;37.70;11.40;;;;;;;5.74;95.48;99359.19;4730741;30;20677;-90
2021/11/06 02:37:16;;;;;;;17.90;9.70;;;;;;;5.74;95.60;99361.78;4744646;30;21219;-90
2021/11/06 02:39:45;;;;;;;24.17;9.50;;;;;;;5.72;95.98;99354.03;4733557;30;20678;-90
2021/11/06 02:42:14;;;;;;;37.70;11.33;;;;;;;5.72;95.66;99348.84;4742471;30;21212;-90
2021/11/06 02:44:42;;;;;;;25.67;9.90;;;;;;;5.73;95.29;99347.97;4747695;30;20659;-90
2021/11/06 02:47:10;;;;;;;23.50;9.30;;;;;;;5.73;95.65;99355.72;4731272;30;20647;-90
2021/11/06 02:49:38;;;;;;;27.80;11.43;;;;;;;5.74;95.78;99354.00;4747955;30;20644;-90
2021/11/06 02:52:07;;;;;;;16.70;9.20;;;;;;;5.74;95.83;99354.88;4745190;30;20655;-90
2021/11/06 02:54:36;;;;;;;33.33;11.53;;;;;;;5.77;96.09;99357.38;4756448;30;20667;-90
2021/11/06 02:57:06;;;;;;;23.03;10.10;;;;;;;5.79;95.87;99359.94;4730739;30;20651;-90
2021/11/06 02:59:34;;;;;;;32.00;10.20;;;;;;;5.82;96.03;99360.69;4729747;30;20644;-90
2021/11/06 03:02:02;;;;;;;37.87;9.83;;;;;;;5.83;95.89;99359.78;4731890;30;20651;-90
2021/11/06 03:04:35;;;;;;;23.80;9.33;;;;;;;5.84;95.91;99360.63;4742024;30;20643;-90
2021/11/06 03:07:04;;;;;;;22.00;9.13;;;;;;;5.86;95.39;99358.84;4748531;30;20647;-90
2021/11/06 03:09:37;;;;;;;38.03;11.87;;;;;;;5.85;95.76;99364.91;4727501;30;20659;-90
2021/11/06 03:12:09;;;;;;;49.07;10.00;;;;;;;5.87;95.90;99366.56;4731250;30;20650;-90
2021/11/06 03:14:38;;;;;;;21.53;9.63;;;;;;;5.91;95.83;99365.59;4730471;30;21300;-90
2021/11/06 03:17:07;;;;;;;30.03;9.27;;;;;;;5.91;95.45;99368.16;4744815;30;21295;-90
2021/11/06 03:19:35;;;;;;;22.37;10.37;;;;;;;5.87;94.62;99368.31;4743331;30;20750;-90
2021/11/06 03:22:04;;;;;;;23.67;10.83;;;;;;;5.82;94.08;99372.78;4730029;30;20647;-90
2021/11/06 03:24:32;;;;;;;18.00;9.57;;;;;;;5.77;93.73;99372.03;4746330;30;20737;-90
2021/11/06 03:27:00;;;;;;;20.17;10.83;;;;;;;5.69;93.22;99374.81;4732808;30;20643;-90
2021/11/06 03:29:30;;;;;;;28.80;11.87;;;;;;;5.63;92.81;99372.41;4729681;30;20670;-90
2021/11/06 03:31:59;;;;;;;20.67;10.53;;;;;;;5.61;93.29;99375.94;4737498;30;20646;-90
2021/11/06 03:34:27;;;;;;;22.13;10.83;;;;;;;5.55;93.26;99376.13;4747335;30;20639;-90
2021/11/06 03:36:55;;;;;;;21.90;10.03;;;;;;;5.52;92.76;99375.31;4736874;30;20643;-90
2021/11/06 03:39:24;;;;;;;21.53;10.30;;;;;;;5.48;92.25;99373.75;4746485;30;20658;-90
2021/11/06 03:41:53;;;;;;;17.30;9.77;;;;;;;5.45;92.57;99376.41;4729384;30;20704;-90
2021/11/06 03:44:21;;;;;;;34.17;10.70;;;;;;;5.44;92.75;99382.47;4732216;30;20660;-90
2021/11/06 03:46:51;;;;;;;27.47;10.40;;;;;;;5.44;93.13;99378.16;4750193;30;20639;-90
2021/11/06 03:49:19;;;;;;;45.67;11.17;;;;;;;5.46;93.27;99386.72;4744689;30;20650;-90
2021/11/06 03:51:47;;;;;;;20.40;10.10;;;;;;;5.46;93.46;99385.84;4746507;30;20630;-90
2021/11/06 03:54:16;;;;;;;17.47;9.23;;;;;;;5.44;93.24;99380.75;4744128;30;20671;-90
2021/11/06 03:56:44;;;;;;;90.83;11.80;;;;;;;5.43;93.11;99385.97;4733909;30;20883;-90
2021/11/06 03:59:12;;;;;;;21.27;10.63;;;;;;;5.39;93.15;99385.19;4747890;30;20650;-90
2021/11/06 04:01:40;;;;;;;30.83;9.80;;;;;;;5.41;93.12;99392.88;4737091;30;20742;-92
2021/11/06 04:04:10;;;;;;;22.30;9.73;;;;;;;5.37;93.42;99392.13;4735186;30;20646;-90
2021/11/06 04:06:38;;;;;;;22.87;9.73;;;;;;;5.36;93.57;99395.59;4735273;30;20643;-90
2021/11/06 04:09:06;;;;;;;24.60;9.63;;;;;;;5.38;93.87;99399.00;4732902;30;21083;-90
2021/11/06 04:11:34;;;;;;;26.93;8.37;;;;;;;5.42;94.03;99400.59;4737150;30;21538;-90
2021/11/06 04:14:03;;;;;;;31.63;8.70;;;;;;;5.42;93.86;99399.78;4750119;30;21226;-90
2021/11/06 04:16:31;;;;;;;20.50;9.00;;;;;;;5.45;94.32;99400.53;4746578;30;20667;-90
2021/11/06 04:18:59;;;;;;;24.47;10.00;;;;;;;5.46;94.12;99394.47;4750810;30;20653;-89
2021/11/06 04:21:28;;;;;;;21.10;9.17;;;;;;;5.47;94.20;99393.56;4733101;30;20662;-90
2021/11/06 04:23:57;;;;;;;23.40;10.20;;;;;;;5.46;94.96;99394.47;4751388;30;20732;-90
2021/11/06 04:26:25;;;;;;;27.17;9.80;;;;;;;5.49;94.45;99390.94;4728738;30;21073;-90
2021/11/06 04:28:53;;;;;;;18.67;9.83;;;;;;;5.49;94.32;99391.81;4749311;30;20651;-90
2021/11/06 04:31:22;;;;;;;16.50;9.27;;;;;;;5.48;94.58;99384.94;4748477;30;20643;-91
2021/11/06 04:33:50;;;;;;;17.00;8.73;;;;;;;5.50;94.56;99387.47;4732913;30;20631;-90
2021/11/06 04:36:19;;;;;;;14.43;8.23;;;;;;;5.55;95.09;99393.34;4747658;30;20679;-90
2021/11/06 04:38:48;;;;;;;19.20;9.00;;;;;;;5.60;95.36;99398.34;4732288;30;20676;-90
2021/11/06 04:41:16;;;;;;;19.73;9.37;;;;;;;5.66;95.16;99400.78;4736977;30;20668;-90
2021/11/06 04:43:45;;;;;;;34.23;9.40;;;;;;;5.71;94.93;99404.09;4751168;30;20662;-90
2021/11/06 04:46:13;;;;;;;15.83;8.40;;;;;;;5.77;95.54;99403.09;4748148;30;20622;-91
2021/11/06 04:48:41;;;;;;;15.30;8.70;;;;;;;5.85;95.81;99403.72;4747215;30;20635;-91
2021/11/06 04:51:09;;;;;;;17.10;8.53;;;;;;;5.91;95.54;99406.13;4747043;30;20710;-93
2021/11/06 04:53:38;;;;;;;16.97;8.60;;;;;;;5.96;95.32;99407.72;4747324;30;21180;-91
2021/11/06 04:56:07;;;;;;;23.40;9.50;;;;;;;5.99;95.24;99399.84;4733119;30;20685;-91
2021/11/06 04:58:35;;;;;;;18.93;8.57;;;;;;;6.03;95.54;99408.38;4729656;30;20735;-92
2021/11/06 05:01:04;;;;;;;33.87;9.67;;;;;;;6.07;96.07;99402.22;4734916;30;20639;-92
2021/11/06 05:03:32;;;;;;;41.00;9.33;;;;;;;6.07;94.98;99404.81;4749948;30;20639;-92
2021/11/06 05:06:00;;;;;;;24.07;9.70;;;;;;;6.08;95.82;99403.94;4730695;30;20627;-92
2021/11/06 05:08:29;;;;;;;29.03;9.00;;;;;;;6.14;95.72;99412.34;4746662;30;20669;-92
2021/11/06 05:10:57;;;;;;;27.23;8.77;;;;;;;6.13;95.75;99403.75;4752951;30;20640;-92
2021/11/06 05:13:26;;;;;;;32.47;10.17;;;;;;;6.19;95.93;99411.34;4734305;30;20662;-91
2021/11/06 05:15:57;;;;;;;30.43;9.97;;;;;;;6.22;95.72;99410.38;4760736;30;20659;-91
2021/11/06 05:18:26;;;;;;;22.13;9.27;;;;;;;6.22;95.46;99411.25;4748070;30;20748;-92
2021/11/06 05:20:54;;;;;;;58.97;12.40;;;;;;;6.24;96.09;99406.84;4751024;30;20639;-91
2021/11/06 05:23:22;;;;;;;27.23;10.47;;;;;;;6.25;95.43;99408.53;4737899;30;20646;-91
2021/11/06 05:25:54;;;;;;;21.50;9.90;;;;;;;6.26;96.04;99410.22;4737240;30;20681;-91
2021/11/06 05:28:22;;;;;;;36.10;10.97;;;;;;;6.26;96.30;99412.81;4745764;30;21005;-91
2021/11/06 05:30:52;;;;;;;35.17;9.57;;;;;;;6.30;95.74;99406.66;4743209;30;20780;-91
2021/11/06 05:33:20;;;;;;;57.90;12.17;;;;;;;6.31;96.12;99403.16;4735023;30;20651;-91
2021/11/06 05:35:48;;;;;;;32.97;9.80;;;;;;;6.35;95.85;99409.94;4752582;30;20703;-92
2021/11/06 05:38:16;;;;;;;38.13;11.27;;;;;;;6.38;95.74;99411.63;4763376;30;21023;-91
2021/11/06 05:40:44;;;;;;;46.67;10.70;;;;;;;6.38;94.88;99417.63;4729267;30;20654;-91
2021/11/06 05:43:13;;;;;;;21.57;9.40;;;;;;;6.34;95.43;99416.00;4763234;30;20650;-91
2021/11/06 05:45:41;;;;;;;50.43;10.33;;;;;;;6.35;95.66;99424.66;4733802;30;20652;-92
2021/11/06 05:48:10;;;;;;;33.50;9.13;;;;;;;6.33;94.87;99426.44;4736126;30;20670;-92
2021/11/06 05:50:39;;;;;;;28.00;9.60;;;;;;;6.26;95.46;99418.00;4747611;30;20639;-91
2021/11/06 05:53:07;;;;;;;29.07;10.83;;;;;;;6.25;95.25;99428.41;4737184;30;20653;-91
2021/11/06 05:55:35;;;;;;;38.20;10.60;;;;;;;6.26;95.58;99424.94;4746793;30;20698;-91
2021/11/06 05:58:03;;;;;;;54.27;11.10;;;;;;;6.26;95.78;99415.41;4748352;30;20770;-92
2021/11/06 06:00:31;;;;;;;27.37;10.03;;;;;;;6.27;95.96;99419.72;4730521;30;20742;-92
2021/11/06 06:03:00;;;;;;;24.87;8.70;;;;;;;6.24;95.37;99422.38;4737943;30;20658;-91
2021/11/06 06:05:29;;;;;;;25.20;9.47;;;;;;;6.23;95.15;99422.44;4744469;30;20654;-92
2021/11/06 06:07:58;;;;;;;39.47;10.30;;;;;;;6.24;95.22;99421.53;4748792;30;20734;-91
2021/11/06 06:10:26;;;;;;;26.80;9.23;;;;;;;6.25;95.44;99418.03;4748173;30;20671;-92
2021/11/06 06:12:54;;;;;;;27.77;8.63;;;;;;;6.24;94.67;99424.97;4746683;30;21022;-91
2021/11/06 06:15:23;;;;;;;18.33;8.30;;;;;;;6.25;94.72;99429.25;4730279;30;20653;-92
2021/11/06 06:17:52;;;;;;;24.90;9.70;;;;;;;6.23;94.91;99420.69;4746138;30;20679;-91
2021/11/06 06:20:21;;;;;;;17.43;8.53;;;;;;;6.22;94.63;99425.91;4760288;30;20646;-91
2021/11/06 06:22:51;;;;;;;18.87;8.10;;;;;;;6.18;94.63;99427.75;4734184;30;20651;-91
2021/11/06 06:25:19;;;;;;;14.10;7.87;;;;;;;6.13;94.32;99429.63;4743156;30;20733;-91
2021/11/06 06:27:47;;;;;;;17.33;8.57;;;;;;;6.14;94.60;99440.84;4748033;30;21014;-91
2021/11/06 06:30:16;;;;;;;24.73;8.70;;;;;;;6.15;94.12;99447.72;4730767;30;20639;-91
2021/11/06 06:32:45;;;;;;;15.80;8.00;;;;;;;6.09;93.89;99443.56;4759305;30;20746;-92
2021/11/06 06:35:14;;;;;;;20.67;8.03;;;;;;;6.07;93.81;99446.22;4745850;30;21280;-92
2021/11/06 06:37:43;;;;;;;19.00;7.77;;;;;;;6.07;93.99;99454.84;4747376;30;20667;-91
2021/11/06 06:40:13;;;;;;;18.73;6.93;;;;;;;6.06;93.86;99450.56;4746514;30;20645;-91
2021/11/06 06:42:41;;;;;;;21.13;8.80;;;;;;;6.03;93.66;99460.16;4729581;30;20682;-91
2021/11/06 06:45:10;;;;;;;19.80;7.43;;;;;;;6.03;94.04;99457.56;4725807;30;20641;-92
2021/11/06 06:47:38;;;;;;;25.77;7.90;;;;;;;6.04;94.49;99454.94;4761140;30;20662;-91
2021/11/06 06:50:07;;;;;;;45.13;10.80;;;;;;;6.05;94.29;99453.22;4737599;30;20631;-91
2021/11/06 06:52:35;;;;;;;23.07;8.43;;;;;;;6.05;94.25;99463.56;4730119;30;20663;-91
2021/11/06 06:55:04;;;;;;;20.20;8.53;;;;;;;6.03;93.96;99463.59;4744823;30;20680;-91
2021/11/06 06:57:34;;;;;;;21.60;7.83;;;;;;;6.02;94.13;99451.53;4742987;30;20671;-91
2021/11/06 07:00:03;;;;;;;20.43;7.27;;;;;;;6.04;94.15;99456.69;4747124;30;20651;-91
2021/11/06 07:02:31;;;;;;;22.33;8.70;;;;;;;6.02;93.85;99467.06;4759999;30;20650;-91
2021/11/06 07:04:59;;;;;;;19.13;7.30;;;;;;;6.03;93.96;99470.50;4739769;30;20647;-91
2021/11/06 07:07:28;;;;;;;24.23;7.70;;;;;;;6.04;93.75;99474.81;4743936;30;21084;-91
2021/11/06 07:09:56;;;;;;;19.60;7.27;;;;;;;6.02;93.58;99472.25;4744009;30;20643;-91
2021/11/06 07:12:26;;;;;;;21.97;7.80;;;;;;;6.01;93.34;99478.31;4747060;30;20662;-91
2021/11/06 07:14:55;;;;;;;23.20;6.77;;;;;;;6.01;93.30;99470.53;4745503;30;21384;-92
2021/11/06 07:17:23;;;;;;;23.80;7.73;;;;;;;6.02;92.90;99471.41;4755781;30;21123;-91
2021/11/06 07:19:52;;;;;;;27.23;7.33;;;;;;;6.02;93.71;99471.41;4742247;30;20631;-91
2021/11/06 07:22:20;;;;;;;35.97;8.53;;;;;;;6.05;93.63;99471.31;4744141;30;20659;-91
2021/11/06 07:24:48;;;;;;;15.93;7.33;;;;;;;6.03;93.65;99479.13;4746431;30;21152;-92
2021/11/06 07:27:16;;;;;;;24.83;8.50;;;;;;;6.08;93.94;99487.63;4730374;30;20657;-91
2021/11/06 07:29:44;;;;;;;60.93;8.17;;;;;;;6.09;93.49;99484.97;4734316;30;20647;-91
2021/11/06 07:32:14;;;;;;;40.30;8.93;;;;;;;6.09;93.22;99492.75;4746560;30;20658;-92
2021/11/06 07:34:42;;;;;;;43.73;9.30;;;;;;;6.11;93.05;99490.97;4743423;30;20651;-91
2021/11/06 07:37:10;;;;;;;22.50;7.73;;;;;;;6.10;94.86;99485.81;4745245;30;21240;-92
2021/11/06 07:39:39;;;;;;;24.17;8.70;;;;;;;6.12;93.97;99490.06;4744763;30;20631;-91
2021/11/06 07:42:07;;;;;;;33.27;10.80;;;;;;;6.14;94.09;99485.69;4746936;30;20645;-91
2021/11/06 07:44:35;;;;;;;39.40;9.20;;;;;;;6.20;94.01;99493.28;4742859;30;20648;-91
2021/11/06 07:47:04;;;;;;;40.23;13.33;;;;;;;6.24;93.83;99494.03;4741402;30;20647;-91
2021/11/06 07:49:33;;;;;;;52.43;11.10;;;;;;;6.23;93.29;99487.19;4747429;30;20657;-92
2021/11/06 07:52:02;;;;;;;38.73;10.57;;;;;;;6.22;93.30;99496.69;4744599;30;21303;-91
2021/11/06 07:54:30;;;;;;;34.50;10.27;;;;;;;6.24;93.39;99494.91;4731568;30;20657;-91
2021/11/06 07:56:59;;;;;;;56.90;10.37;;;;;;;6.25;92.83;99498.34;4760847;30;20644;-92
2021/11/06 07:59:27;;;;;;;51.70;12.47;;;;;;;6.25;93.69;99504.34;4728987;30;20644;-92
2021/11/06 08:01:55;;;;;;;47.67;10.27;;;;;;;6.23;92.97;99500.13;4756698;30;20645;-91
2021/11/06 08:04:24;;;;;;;28.27;10.10;;;;;;;6.23;93.02;99503.56;4731492;30;20742;-91
2021/11/06 08:06:53;;;;;;;23.03;9.77;;;;;;;6.25;93.62;99501.75;4748421;30;20832;-91
2021/11/06 08:09:21;;;;;;;33.47;10.10;;;;;;;6.29;94.14;99500.78;4731199;30;20682;-91
2021/11/06 08:11:49;;;;;;;62.43;11.20;;;;;;;6.32;93.74;99505.88;4729768;30;20645;-91
2021/11/06 08:14:18;;;;;;;49.93;10.77;;;;;;;6.33;92.76;99505.00;4762006;30;20742;-91
2021/11/06 08:16:49;;;;;;;44.67;10.17;;;;;;;6.29;93.45;99505.97;4728946;30;20644;-91
2021/11/06 08:19:17;;;;;;;38.53;9.80;;;;;;;6.32;93.91;99508.47;4745343;30;20674;-91
2021/11/06 08:21:45;;;;;;;33.90;9.67;;;;;;;6.34;93.58;99509.28;4735689;30;20690;-91
2021/11/06 08:24:15;;;;;;;30.50;10.80;;;;;;;6.34;93.61;99504.09;4746008;30;20641;-92
2021/11/06 08:26:43;;;;;;;33.60;10.37;;;;;;;6.36;93.25;99504.03;4744218;30;20845;-91
2021/11/06 08:29:11;;;;;;;57.83;10.93;;;;;;;6.40;93.39;99511.69;4748130;30;20645;-91
2021/11/06 08:31:39;;;;;;;30.50;12.33;;;;;;;6.36;93.00;99515.28;4745803;30;20716;-91
2021/11/06 08:34:08;;;;;;;45.97;10.90;;;;;;;6.34;93.22;99517.03;4746912;30;20667;-91
2021/11/06 08:36:37;;;;;;;36.43;11.07;;;;;;;6.36;93.59;99517.88;4762947;30;20738;-91
2021/11/06 08:39:05;;;;;;;23.70;8.60;;;;;;;6.38;93.45;99517.81;4738937;30;20681;-92
2021/11/06 08:41:35;;;;;;;42.30;9.97;;;;;;;6.41;93.61;99522.91;4749722;30;20666;-90
2021/11/06 08:44:04;;;;;;;27.20;9.70;;;;;;;6.41;92.92;99526.34;4761978;30;20635;-91
2021/11/06 08:46:32;;;;;;;27.80;10.20;;;;;;;6.36;93.57;99519.59;4730421;30;20655;-93
2021/11/06 08:49:00;;;;;;;25.17;9.67;;;;;;;6.40;93.43;99528.97;4732320;30;21263;-93
2021/11/06 08:51:29;;;;;;;27.00;10.00;;;;;;;6.46;93.72;99523.63;4769240;30;20729;-93
2021/11/06 08:53:58;;;;;;;29.47;8.60;;;;;;;6.54;93.78;99527.69;4734269;30;20666;-93
2021/11/06 08:56:28;;;;;;;26.83;9.07;;;;;;;6.61;93.70;99531.78;4734511;30;21259;-93
2021/11/06 08:59:02;;;;;;;31.07;11.17;;;;;;;6.61;93.82;99527.47;4749034;30;20671;-92
2021/11/06 09:14:09;;;;;;;26.53;10.00;;;;;;;6.86;93.62;99543.13;4760279;30;20741;-88
2021/11/06 09:16:40;;;;;;;27.27;11.47;;;;;;;6.88;92.48;99541.34;4762778;30;20658;-89
2021/11/06 09:19:08;;;;;;;35.87;10.47;;;;;;;6.89;92.03;99543.03;4760462;30;20756;-87
2021/11/06 09:21:37;;;;;;;85.03;12.33;;;;;;;6.90;92.14;99534.34;4767388;30;20681;-89
2021/11/06 09:24:05;;;;;;;26.50;9.70;;;;;;;6.84;91.44;99534.53;4759066;30;21305;-89
2021/11/06 09:26:35;;;;;;;25.43;11.57;;;;;;;6.88;92.93;99533.56;4764954;30;20641;-91
2021/11/06 09:29:05;;;;;;;29.57;10.90;;;;;;;6.91;92.03;99533.47;4753985;30;21054;-93
2021/11/06 09:31:36;;;;;;;28.90;9.87;;;;;;;6.94;91.99;99541.16;4770010;30;20674;-92
2021/11/06 09:34:06;;;;;;;24.83;10.17;;;;;;;6.99;92.97;99540.13;4753417;30;20652;-91
2021/11/06 09:36:35;;;;;;;35.83;12.03;;;;;;;7.04;92.65;99539.06;4742103;30;20717;-91
2021/11/06 09:39:08;;;;;;;18.90;10.70;;;;;;;7.06;92.85;99534.66;4751941;30;20670;-92
2021/11/06 09:41:36;;;;;;;27.77;11.70;;;;;;;7.10;92.28;99531.09;4771275;30;20645;-93
2021/11/06 09:44:05;;;;;;;31.70;12.37;;;;;;;7.12;93.24;99525.84;4780044;29;20651;-91
2021/11/06 09:46:35;;;;;;;18.23;10.03;;;;;;;7.15;92.77;99524.00;4748763;30;20695;-89
2021/11/06 09:49:04;;;;;;;23.83;10.33;;;;;;;7.22;92.34;99522.91;4750671;30;20642;-88
2021/11/06 09:51:33;;;;;;;21.93;9.87;;;;;;;7.30;92.13;99522.69;4745515;30;20724;-90
2021/11/06 09:54:05;;;;;;;21.00;10.57;;;;;;;7.37;92.41;99529.38;4763823;30;20639;-91
2021/11/06 09:56:33;;;;;;;29.30;13.30;;;;;;;7.41;93.63;99534.38;4777197;29;20681;-91
2021/11/06 09:59:04;;;;;;;45.37;10.47;;;;;;;7.44;92.92;99534.28;4767210;30;20708;-89
2021/11/06 10:01:35;;;;;;;24.87;11.37;;;;;;;7.44;92.41;99538.63;4747995;30;20709;-92
2021/11/06 10:04:07;;;;;;;23.00;11.33;;;;;;;7.44;92.71;99538.63;4769612;30;21037;-93
2021/11/06 10:06:37;;;;;;;21.53;10.90;;;;;;;7.46;92.97;99539.41;4751462;30;20975;-92
2021/11/06 10:09:08;;;;;;;19.93;9.80;;;;;;;7.50;92.01;99539.28;4760770;30;21061;-94
2021/11/06 10:11:37;;;;;;;18.13;10.07;;;;;;;7.54;91.90;99533.09;4749614;30;20674;-90
2021/11/06 10:14:06;;;;;;;17.83;10.77;;;;;;;7.58;92.21;99527.75;4743983;30;20652;-89
2021/11/06 10:16:38;;;;;;;19.23;10.73;;;;;;;7.69;92.68;99524.78;4762732;30;20650;-89
2021/11/06 10:19:11;;;;;;;23.07;10.30;;;;;;;7.74;90.31;99534.13;4764501;30;20773;-89
2021/11/06 10:21:42;;;;;;;28.40;12.13;;;;;;;7.79;91.91;99524.44;4775059;29;20649;-93
2021/11/06 10:24:11;;;;;;;21.80;12.77;;;;;;;7.85;91.33;99518.16;4743005;30;20655;-88
2021/11/06 10:26:40;;;;;;;19.90;12.17;;;;;;;7.86;90.97;99523.28;4751632;30;20708;-90
2021/11/06 10:29:11;;;;;;;18.13;10.37;;;;;;;7.92;91.74;99511.84;4744111;30;20754;-90
2021/11/06 10:32:06;;;;;;;18.90;10.97;;;;;;;7.96;90.87;99517.72;4752956;30;20658;-89
2021/11/06 10:34:36;;;;;;;18.10;11.10;;;;;;;8.00;90.66;99510.69;4763390;30;20677;-89
2021/11/06 10:37:06;;;;;;;18.27;10.60;;;;;;;8.04;91.18;99510.53;4766946;30;20737;-89
2021/11/06 10:39:37;;;;;;;17.23;10.40;;;;;;;8.08;90.39;99508.66;4750122;30;20673;-89
2021/11/06 10:42:13;;;;;;;20.00;9.83;;;;;;;8.08;90.07;99509.50;4762579;30;20646;-89
2021/11/06 10:44:42;;;;;;;18.50;10.10;;;;;;;8.05;90.66;99503.59;4764094;29;20648;-90
2021/11/06 10:47:16;;;;;;;20.80;11.37;;;;;;;8.03;90.84;99503.63;4762965;30;20653;-90
2021/11/06 10:49:50;;;;;;;19.93;11.50;;;;;;;8.08;91.63;99504.31;4760333;30;20742;-89
2021/11/06 10:52:20;;;;;;;24.40;12.40;;;;;;;8.13;91.72;99497.25;4750353;30;21116;-90
2021/11/06 10:55:02;;;;;;;26.50;12.17;;;;;;;8.12;90.22;99492.94;4746525;30;20641;-92
2021/11/06 10:57:31;;;;;;;23.77;12.17;;;;;;;8.14;91.19;99488.53;4777294;29;20653;-90
2021/11/06 11:00:13;;;;;;;24.30;12.87;;;;;;;8.15;91.39;99489.41;4754518;30;21255;-90
2021/11/06 11:02:43;;;;;;;31.10;13.73;;;;;;;8.20;92.33;99487.47;4766708;30;20665;-90
2021/11/06 11:05:34;;;;;;;24.10;13.77;;;;;;;8.27;93.53;99484.59;4759827;30;20704;-90
2021/11/06 11:08:03;;;;;;;31.30;13.83;;;;;;;8.28;92.86;99481.06;4757661;30;21308;-90
2021/11/06 11:10:32;;;;;;;23.00;13.13;;;;;;;8.26;91.01;99477.69;4749450;30;20676;-91
2021/11/06 11:13:10;;;;;;;24.00;13.07;;;;;;;8.23;91.58;99472.59;4755568;30;20670;-90
2021/11/06 11:15:39;;;;;;;20.60;11.90;;;;;;;8.22;90.81;99465.72;4760816;30;20655;-89
2021/11/06 11:18:08;;;;;;;29.33;13.70;;;;;;;8.21;91.11;99466.63;4745627;30;23175;-90
2021/11/06 11:20:39;;;;;;;24.07;14.00;;;;;;;8.27;91.39;99468.13;4750365;30;20762;-89
2021/11/06 11:23:12;;;;;;;25.03;13.93;;;;;;;8.27;93.44;99463.81;4742671;30;21219;-89
2021/11/06 11:25:41;;;;;;;24.40;13.30;;;;;;;8.38;93.48;99460.81;4748430;30;20744;-89
2021/11/06 11:28:10;;;;;;;28.83;15.00;;;;;;;8.42;93.42;99455.44;4756291;30;20686;-88
2021/11/06 11:30:38;;;;;;;23.33;14.27;;;;;;;8.41;91.28;99458.94;4744143;30;20734;-89
2021/11/06 11:33:10;;;;;;;28.00;14.73;;;;;;;8.45;91.35;99460.53;4754210;30;20738;-89
2021/11/06 11:35:39;;;;;;;29.73;14.57;;;;;;;8.49;91.70;99455.16;4755258;30;20642;-90
2021/11/06 11:38:08;;;;;;;26.30;14.93;;;;;;;8.55;92.91;99459.25;4740436;30;20653;-89
2021/11/06 11:40:37;;;;;;;28.87;14.67;;;;;;;8.63;93.16;99447.66;4757872;30;20673;-88
2021/11/06 11:43:11;;;;;;;24.37;14.33;;;;;;;8.68;92.89;99455.28;4755831;30;20658;-88
2021/11/06 12:20:26;;;;;;;24.90;15.00;;;;;;;8.99;91.25;99412.34;4730662;30;20720;-92
2021/11/06 12:22:54;;;;;;;32.97;20.77;;;;;;;8.97;91.61;99408.97;4746709;30;20830;-93
2021/11/06 12:25:28;;;;;;;27.60;17.10;;;;;;;9.02;91.78;99402.69;4733845;30;20209;-93